Time;durP1;ratioP1;P1;durP2;ratioP2;P2;SDS_P1;SDS_P2;PMS_P1;PMS_P2;Temp;Humidity;BMP_temperature;BMP_pressure;BME280_temperature;BME280_humidity;BME280_pressure;Samples;Min_cycle;Max_cycle;Signal;HPM_P1;HPM_P2
2021/03/05 00:00:14;;;;;;;;;;;;;;;4.68;100.00;95695.63;1043700;28;20440;-62
2021/03/05 00:00:45;;;;;;;;;;;;;;;4.66;100.00;95695.06;1047785;28;19912;-64
2021/03/05 00:01:15;;;;;;;;;;;;;;;4.68;100.00;95688.63;1051997;28;19908;-62
2021/03/05 00:01:45;;;;;;;;;;;;;;;4.67;100.00;95696.66;1051719;28;19920;-63
2021/03/05 00:02:16;;;;;;;;;;;;;;;4.66;100.00;95695.88;1052263;28;19916;-64
2021/03/05 00:02:46;;;;;;;;;;;;;;;4.66;100.00;95695.88;1056468;28;19907;-63
2021/03/05 00:03:16;;;;;;;;;;;;;;;4.68;100.00;95700.84;1049473;28;19917;-61
2021/03/05 00:03:47;;;;;;;;;;;;;;;4.64;100.00;95699.72;1049391;28;19916;-62
2021/03/05 00:04:17;;;;;;;;;;;;;;;4.64;100.00;95702.31;1047559;28;19909;-62
2021/03/05 00:04:47;;;;;;;;;;;;;;;4.65;100.00;95701.28;1048197;28;19915;-62
2021/03/05 00:05:17;;;;;;;;;;;;;;;4.65;100.00;95698.69;1055403;28;19916;-62
2021/03/05 00:05:48;;;;;;;;;;;;;;;4.63;100.00;95698.13;1047489;28;20378;-61
2021/03/05 00:06:18;;;;;;;;;;;;;;;4.62;100.00;95699.13;1047561;28;19912;-63
2021/03/05 00:06:49;;;;;;;;;;;;;;;4.62;100.00;95696.53;1047573;28;19947;-62
2021/03/05 00:07:19;;;;;;;;;;;;;;;4.63;100.00;95690.34;1050735;28;19908;-61
2021/03/05 00:07:49;;;;;;;;;;;;;;;4.61;100.00;95695.75;1056228;28;19908;-65
2021/03/05 00:08:20;;;;;;;;;;;;;;;4.64;100.00;95699.72;1056299;28;20293;-61
2021/03/05 00:08:50;;;;;;;;;;;;;;;4.64;100.00;95702.31;1053119;28;20052;-64
2021/03/05 00:09:20;;;;;;;;;;;;;;;4.64;100.00;95697.09;1051763;28;20028;-61
2021/03/05 00:09:50;;;;;;;;;;;;;;;4.62;100.00;95691.34;1051322;28;19953;-64
2021/03/05 00:10:25;;;;;;;;;;;;;;;4.59;100.00;95696.97;1042999;28;19962;-61
2021/03/05 00:10:55;;;;;;;;;;;;;;;4.62;100.00;95696.53;1048252;28;19912;-61
2021/03/05 00:11:25;;;;;;;;;;;;;;;4.61;100.00;95689.75;1051881;28;20324;-61
2021/03/05 00:11:56;;;;;;;;;;;;;;;4.62;100.00;95696.53;1052190;28;19908;-62
2021/03/05 00:12:26;;;;;;;;;;;;;;;4.62;100.00;95699.91;1055115;28;19915;-62
2021/03/05 00:12:56;;;;;;;;;;;;;;;4.58;100.00;95696.19;1060283;27;19930;-62
2021/03/05 00:13:27;;;;;;;;;;;;;;;4.59;100.00;95694.38;1054192;28;20456;-62
2021/03/05 00:13:58;;;;;;;;;;;;;;;4.59;100.00;95692.56;1051455;28;20641;-61
2021/03/05 00:14:28;;;;;;;;;;;;;;;4.59;100.00;95686.59;1047238;28;19917;-61
2021/03/05 00:14:58;;;;;;;;;;;;;;;4.39;100.00;95661.75;1047630;28;19919;-64
2021/03/05 00:15:39;;;;;;;;;;;;;;;4.61;100.00;95694.97;1051289;28;19940;-64
2021/03/05 00:16:10;;;;;;;;;;;;;;;4.60;100.00;95695.97;1053379;28;20007;-64
2021/03/05 00:16:40;;;;;;;;;;;;;;;4.60;100.00;95694.16;1055914;28;19942;-63
2021/03/05 00:17:10;;;;;;;;;;;;;;;4.56;100.00;95692.22;1051845;28;20382;-63
2021/03/05 00:17:41;;;;;;;;;;;;;;;4.56;100.00;95697.44;1051851;28;19912;-63
2021/03/05 00:18:11;;;;;;;;;;;;;;;4.56;100.00;95698.25;1047577;28;20393;-64
2021/03/05 00:18:41;;;;;;;;;;;;;;;4.56;100.00;95702.63;1050683;28;20394;-64
2021/03/05 00:19:12;;;;;;;;;;;;;;;4.56;100.00;95697.44;1040487;28;19996;-63
2021/03/05 00:19:42;;;;;;;;;;;;;;;4.54;100.00;95694.28;1035154;28;19914;-63
2021/03/05 00:20:13;;;;;;;;;;;;;;;4.56;100.00;95702.63;1035930;28;20315;-64
2021/03/05 00:20:44;;;;;;;;;;;;;;;4.56;100.00;95700.03;1035490;28;21071;-64
2021/03/05 00:21:14;;;;;;;;;;;;;;;4.54;100.00;95700.25;1048286;28;19996;-63
2021/03/05 00:21:45;;;;;;;;;;;;;;;4.56;100.00;95705.22;1051993;28;19908;-63
2021/03/05 00:22:15;;;;;;;;;;;;;;;4.56;100.00;95705.22;1051740;28;19912;-63
2021/03/05 00:22:45;;;;;;;;;;;;;;;4.55;100.00;95704.44;1056153;28;19911;-64
2021/03/05 00:23:16;;;;;;;;;;;;;;;4.53;100.00;95703.06;1051913;28;19924;-64
2021/03/05 00:23:46;;;;;;;;;;;;;;;4.53;100.00;95703.88;1050447;28;20321;-64
2021/03/05 00:24:16;;;;;;;;;;;;;;;4.52;100.00;95702.28;1051427;28;19916;-64
2021/03/05 00:24:47;;;;;;;;;;;;;;;4.53;100.00;95703.88;1051681;28;19912;-63
2021/03/05 00:25:17;;;;;;;;;;;;;;;4.53;100.00;95703.06;1056001;28;19912;-64
2021/03/05 00:25:49;;;;;;;;;;;;;;;4.55;100.00;95701.84;1054065;28;19986;-63
2021/03/05 00:26:19;;;;;;;;;;;;;;;4.55;100.00;95698.44;1056184;28;20377;-64
2021/03/05 00:26:50;;;;;;;;;;;;;;;4.55;100.00;95701.84;1056067;28;19919;-64
2021/03/05 00:27:20;;;;;;;;;;;;;;;4.58;100.00;95700.59;1055737;28;19907;-63
2021/03/05 00:27:50;;;;;;;;;;;;;;;4.56;100.00;95698.25;1056055;28;19915;-63
2021/03/05 00:28:21;;;;;;;;;;;;;;;4.58;100.00;95698.78;1051545;28;19943;-63
2021/03/05 00:28:51;;;;;;;;;;;;;;;4.57;100.00;95699.03;1051626;28;20023;-63
2021/03/05 00:29:21;;;;;;;;;;;;;;;4.56;100.00;95700.03;1053473;28;19912;-64
2021/03/05 00:29:51;;;;;;;;;;;;;;;4.55;100.00;95707.03;1056163;28;19923;-64
2021/03/05 00:30:22;;;;;;;;;;;;;;;4.57;100.00;95699.81;1060417;27;19971;-63
2021/03/05 00:30:52;;;;;;;;;;;;;;;4.58;100.00;95701.38;1054440;28;19908;-64
2021/03/05 00:31:23;;;;;;;;;;;;;;;4.56;100.00;95700.84;1047640;28;19909;-63
2021/03/05 00:31:53;;;;;;;;;;;;;;;4.57;100.00;95691.22;1047426;28;20405;-64
2021/03/05 00:32:23;;;;;;;;;;;;;;;4.58;100.00;95704.00;1047446;28;19905;-64
2021/03/05 00:32:53;;;;;;;;;;;;;;;4.59;100.00;95702.19;1051490;28;19920;-60
2021/03/05 00:33:24;;;;;;;;;;;;;;;4.58;100.00;95698.00;1051764;28;19978;-64
2021/03/05 00:33:54;;;;;;;;;;;;;;;4.59;100.00;95696.97;1051975;28;19912;-63
2021/03/05 00:34:24;;;;;;;;;;;;;;;4.57;100.00;95693.84;1048963;28;19916;-64
2021/03/05 00:34:55;;;;;;;;;;;;;;;4.57;100.00;95699.81;1051447;28;19919;-63
2021/03/05 00:35:25;;;;;;;;;;;;;;;4.56;100.00;95700.84;1055400;28;19933;-63
2021/03/05 00:35:55;;;;;;;;;;;;;;;4.57;100.00;95693.84;1054563;28;19907;-64
2021/03/05 00:36:26;;;;;;;;;;;;;;;4.55;100.00;95696.63;1047603;28;19912;-64
2021/03/05 00:36:56;;;;;;;;;;;;;;;4.55;100.00;95699.25;1047554;28;19916;-63
2021/03/05 00:37:26;;;;;;;;;;;;;;;4.57;100.00;95696.44;1046771;28;20447;-64
2021/03/05 00:37:56;;;;;;;;;;;;;;;4.57;100.00;95699.03;1050984;28;19985;-64
2021/03/05 00:38:27;;;;;;;;;;;;;;;4.58;100.00;95695.41;1047424;28;19943;-63
2021/03/05 00:38:57;;;;;;;;;;;;;;;4.58;100.00;95696.19;1043121;28;19966;-64
2021/03/05 00:39:27;;;;;;;;;;;;;;;4.57;100.00;95693.84;1045204;28;19916;-64
2021/03/05 00:39:58;;;;;;;;;;;;;;;4.56;100.00;95697.44;1051504;28;19915;-64
2021/03/05 00:40:28;;;;;;;;;;;;;;;4.57;100.00;95699.03;1055919;28;19908;-64
2021/03/05 00:40:58;;;;;;;;;;;;;;;4.56;100.00;95694.81;1056418;28;19930;-63
2021/03/05 00:41:29;;;;;;;;;;;;;;;4.58;100.00;95700.59;1051633;28;20400;-64
2021/03/05 00:41:59;;;;;;;;;;;;;;;4.57;100.00;95696.44;1051585;28;19943;-63
2021/03/05 00:42:29;;;;;;;;;;;;;;;4.57;100.00;95699.81;1047700;28;20415;-64
2021/03/05 00:42:59;;;;;;;;;;;;;;;4.58;100.00;95695.41;1050200;28;20114;-64
2021/03/05 00:43:30;;;;;;;;;;;;;;;4.60;100.00;95693.38;1051633;28;19912;-63
2021/03/05 00:44:00;;;;;;;;;;;;;;;4.62;100.00;95692.13;1047513;28;19915;-63
2021/03/05 00:44:30;;;;;;;;;;;;;;;4.61;100.00;95694.97;1046923;28;19916;-64
2021/03/05 00:45:01;;;;;;;;;;;;;;;4.62;100.00;95691.34;1047627;28;19909;-64
2021/03/05 00:45:31;;;;;;;;;;;;;;;4.59;100.00;95686.59;1051672;28;19912;-63
2021/03/05 00:46:01;;;;;;;;;;;;;;;4.60;100.00;95699.38;1055736;28;19907;-64
2021/03/05 00:46:32;;;;;;;;;;;;;;;4.60;100.00;95690.78;1060092;27;20018;-64
2021/03/05 00:47:02;;;;;;;;;;;;;;;4.59;100.00;95691.78;1059833;27;19912;-63
2021/03/05 00:47:33;;;;;;;;;;;;;;;4.58;100.00;95690.22;1055873;28;20275;-64
2021/03/05 00:48:03;;;;;;;;;;;;;;;4.59;100.00;95689.97;1052586;28;19912;-63
2021/03/05 00:48:34;;;;;;;;;;;;;;;4.59;100.00;95694.38;1054268;28;20317;-62
2021/03/05 00:49:04;;;;;;;;;;;;;;;4.59;100.00;95691.78;1056270;28;19919;-64
2021/03/05 00:49:34;;;;;;;;;;;;;;;4.58;100.00;95688.41;1054070;28;19904;-63
2021/03/05 00:50:05;;;;;;;;;;;;;;;4.57;100.00;95689.41;1051570;28;19973;-64
2021/03/05 00:50:35;;;;;;;;;;;;;;;4.57;100.00;95688.63;1051800;28;20518;-64
2021/03/05 00:51:06;;;;;;;;;;;;;;;4.58;100.00;95691.00;1047325;28;19905;-64
2021/03/05 00:51:36;;;;;;;;;;;;;;;4.56;100.00;95687.03;1047179;28;19913;-63
2021/03/05 00:52:06;;;;;;;;;;;;;;;4.55;100.00;95695.84;1046783;28;19909;-63
2021/03/05 00:52:37;;;;;;;;;;;;;;;4.57;100.00;95693.84;1051600;28;19969;-63
2021/03/05 00:53:07;;;;;;;;;;;;;;;4.56;100.00;95692.22;1051886;28;20456;-63
2021/03/05 00:53:37;;;;;;;;;;;;;;;4.53;100.00;95696.09;1055468;28;19912;-63
2021/03/05 00:54:08;;;;;;;;;;;;;;;4.53;100.00;95695.28;1047567;28;19905;-64
2021/03/05 00:54:38;;;;;;;;;;;;;;;4.54;100.00;95692.47;1050630;28;19904;-64
2021/03/05 00:55:09;;;;;;;;;;;;;;;4.56;100.00;95697.44;1043863;28;19913;-63
2021/03/05 00:55:39;;;;;;;;;;;;;;;4.58;100.00;95691.00;1047592;28;19997;-63
2021/03/05 00:56:09;;;;;;;;;;;;;;;4.57;100.00;95693.84;1056144;28;19908;-63
2021/03/05 00:56:40;;;;;;;;;;;;;;;4.56;100.00;95681.84;1051128;28;19931;-63
2021/03/05 00:57:10;;;;;;;;;;;;;;;4.57;100.00;95683.44;1050819;28;19912;-63
2021/03/05 00:57:40;;;;;;;;;;;;;;;4.56;100.00;95687.84;1051439;28;19908;-64
2021/03/05 00:58:11;;;;;;;;;;;;;;;4.56;100.00;95697.44;1053721;28;19909;-63
2021/03/05 00:58:41;;;;;;;;;;;;;;;4.56;100.00;95693.03;1060461;27;20397;-61
2021/03/05 00:59:11;;;;;;;;;;;;;;;4.56;100.00;95692.22;1051419;28;19912;-64
2021/03/05 00:59:42;;;;;;;;;;;;;;;4.53;100.00;95687.47;1047289;28;20273;-64
2021/03/05 01:00:13;;;;;;;;;;;;;;;4.53;100.00;95692.69;1047375;28;20341;-63
2021/03/05 01:00:43;;;;;;;;;;;;;;;4.54;100.00;95687.28;1039571;28;21119;-64
2021/03/05 01:01:14;;;;;;;;;;;;;;;4.55;100.00;95698.44;1047686;28;19944;-63
2021/03/05 01:01:44;;;;;;;;;;;;;;;4.54;100.00;95691.69;1051635;28;19909;-64
2021/03/05 01:02:14;;;;;;;;;;;;;;;4.53;100.00;95690.91;1051007;28;19912;-63
2021/03/05 01:02:45;;;;;;;;;;;;;;;4.53;100.00;95697.88;1056161;28;19960;-63
2021/03/05 01:03:15;;;;;;;;;;;;;;;4.53;100.00;95687.47;1055381;28;19931;-64
2021/03/05 01:03:45;;;;;;;;;;;;;;;4.52;100.00;95689.28;1053807;28;19965;-64
2021/03/05 01:04:16;;;;;;;;;;;;;;;4.57;100.00;95693.84;1043257;28;19905;-63
2021/03/05 01:04:46;;;;;;;;;;;;;;;4.56;100.00;95692.22;1047290;28;20317;-64
2021/03/05 01:05:16;;;;;;;;;;;;;;;4.56;100.00;95697.44;1047186;28;20281;-64
2021/03/05 01:05:47;;;;;;;;;;;;;;;4.58;100.00;95693.59;1047644;28;19955;-61
2021/03/05 01:06:17;;;;;;;;;;;;;;;4.57;100.00;95689.41;1051410;28;19912;-64
2021/03/05 01:06:47;;;;;;;;;;;;;;;4.57;100.00;95686.03;1051877;28;20343;-64
2021/03/05 01:07:18;;;;;;;;;;;;;;;4.57;100.00;95688.63;1047643;28;19919;-64
2021/03/05 01:07:48;;;;;;;;;;;;;;;4.57;100.00;95689.41;1043414;28;20208;-64
2021/03/05 01:08:18;;;;;;;;;;;;;;;4.54;100.00;95682.06;1051439;28;19932;-64
2021/03/05 01:08:49;;;;;;;;;;;;;;;4.56;100.00;95687.03;1048690;28;19920;-63
2021/03/05 01:09:19;;;;;;;;;;;;;;;4.56;100.00;95687.84;1051502;28;19915;-64
2021/03/05 01:09:51;;;;;;;;;;;;;;;4.56;100.00;95687.03;1047572;28;20406;-63
2021/03/05 01:10:22;;;;;;;;;;;;;;;4.55;100.00;95685.47;1047238;28;19919;-63
2021/03/05 01:10:52;;;;;;;;;;;;;;;4.54;100.00;95691.69;1052087;28;20406;-63
2021/03/05 01:11:22;;;;;;;;;;;;;;;4.55;100.00;95694.03;1047672;28;19908;-63
2021/03/05 01:11:53;;;;;;;;;;;;;;;4.56;100.00;95679.25;1050490;28;19915;-63
2021/03/05 01:12:23;;;;;;;;;;;;;;;4.56;100.00;95693.03;1051423;28;19942;-64
2021/03/05 01:12:53;;;;;;;;;;;;;;;4.57;100.00;95691.22;1051588;28;19908;-63
2021/03/05 01:13:24;;;;;;;;;;;;;;;4.55;100.00;95685.47;1051449;28;19912;-64
2021/03/05 01:13:54;;;;;;;;;;;;;;;4.55;100.00;95688.06;1051298;28;19927;-63
2021/03/05 01:14:24;;;;;;;;;;;;;;;4.57;100.00;95686.03;1051462;28;19909;-64
2021/03/05 01:14:55;;;;;;;;;;;;;;;4.56;100.00;95692.22;1051639;28;20431;-63
2021/03/05 01:15:31;;;;;;;;;;;;;;;4.55;100.00;95691.44;1055744;28;19912;-64
2021/03/05 01:16:01;;;;;;;;;;;;;;;4.52;100.00;95684.09;1051480;28;19920;-63
2021/03/05 01:16:31;;;;;;;;;;;;;;;4.53;100.00;95688.28;1051898;28;19909;-63
2021/03/05 01:17:02;;;;;;;;;;;;;;;4.53;100.00;95682.28;1046592;28;19962;-63
2021/03/05 01:17:32;;;;;;;;;;;;;;;4.51;100.00;95692.91;1050109;28;20366;-63
2021/03/05 01:18:03;;;;;;;;;;;;;;;4.33;100.00;95662.66;1047470;28;19958;-65
2021/03/05 01:18:33;;;;;;;;;;;;;;;4.53;100.00;95692.69;1047429;28;19931;-64
2021/03/05 01:19:07;;;;;;;;;;;;;;;4.55;100.00;95695.84;1053911;28;19919;-64
2021/03/05 01:19:38;;;;;;;;;;;;;;;4.56;100.00;95698.25;1056160;28;19930;-63
2021/03/05 01:20:11;;;;;;;;;;;;;;;4.53;100.00;95688.28;1052027;28;19908;-63
2021/03/05 01:20:42;;;;;;;;;;;;;;;4.52;100.00;95696.31;1047446;28;20007;-64
2021/03/05 01:21:12;;;;;;;;;;;;;;;4.53;100.00;95692.69;1043193;28;19909;-64
2021/03/05 01:21:42;;;;;;;;;;;;;;;4.51;100.00;95689.53;1043527;28;19925;-64
2021/03/05 01:22:13;;;;;;;;;;;;;;;4.48;100.00;95694.16;1047407;28;19913;-63
2021/03/05 01:22:43;;;;;;;;;;;;;;;4.49;100.00;95698.34;1048943;28;19908;-63
2021/03/05 01:23:14;;;;;;;;;;;;;;;4.49;100.00;95693.16;1051357;28;19947;-63
2021/03/05 01:23:45;;;;;;;;;;;;;;;4.52;100.00;95691.88;1051577;28;19916;-64
2021/03/05 01:24:15;;;;;;;;;;;;;;;4.54;100.00;95694.28;1051674;28;19959;-63
2021/03/05 01:24:46;;;;;;;;;;;;;;;4.53;100.00;95688.28;1052110;28;20759;-64
2021/03/05 01:25:17;;;;;;;;;;;;;;;4.54;100.00;95689.09;1047777;28;19908;-64
2021/03/05 01:25:48;;;;;;;;;;;;;;;4.55;100.00;95693.25;1048657;28;19909;-64
2021/03/05 01:26:18;;;;;;;;;;;;;;;4.52;100.00;95691.09;1048045;28;19913;-63
2021/03/05 01:26:49;;;;;;;;;;;;;;;4.52;100.00;95688.50;1052720;28;19916;-64
2021/03/05 01:27:19;;;;;;;;;;;;;;;4.52;100.00;95699.69;1055873;28;20321;-64
2021/03/05 01:27:49;;;;;;;;;;;;;;;4.51;100.00;95692.91;1056813;28;19994;-63
2021/03/05 01:28:20;;;;;;;;;;;;;;;4.51;100.00;95697.31;1052396;28;19914;-62
2021/03/05 01:28:50;;;;;;;;;;;;;;;4.51;100.00;95699.94;1056969;28;19912;-63
2021/03/05 01:29:20;;;;;;;;;;;;;;;4.49;100.00;95693.16;1055750;28;20368;-61
2021/03/05 01:29:50;;;;;;;;;;;;;;;4.48;100.00;95696.75;1052507;28;19905;-64
2021/03/05 01:30:21;;;;;;;;;;;;;;;4.48;100.00;95693.38;1052578;28;19916;-64
2021/03/05 01:30:51;;;;;;;;;;;;;;;4.48;100.00;95695.97;1049267;28;20010;-63
2021/03/05 01:31:22;;;;;;;;;;;;;;;4.49;100.00;95693.16;1043883;28;20401;-64
2021/03/05 01:31:52;;;;;;;;;;;;;;;4.48;100.00;95695.97;1044053;28;19944;-64
2021/03/05 01:32:22;;;;;;;;;;;;;;;4.46;100.00;95690.19;1043541;28;20387;-64
2021/03/05 01:32:52;;;;;;;;;;;;;;;4.49;100.00;95693.16;1040072;28;19909;-63
2021/03/05 01:33:23;;;;;;;;;;;;;;;4.46;100.00;95693.59;1043768;28;19932;-63
2021/03/05 01:33:53;;;;;;;;;;;;;;;4.44;100.00;95700.81;1043995;28;19916;-64
2021/03/05 01:34:23;;;;;;;;;;;;;;;4.43;100.00;95698.47;1047411;28;19913;-64
2021/03/05 01:34:54;;;;;;;;;;;;;;;4.42;100.00;95695.03;1048167;28;20496;-63
2021/03/05 01:35:25;;;;;;;;;;;;;;;4.42;100.00;95697.63;1047957;28;19912;-64
2021/03/05 01:35:55;;;;;;;;;;;;;;;4.44;100.00;95690.44;1047648;28;20379;-66
2021/03/05 01:36:25;;;;;;;;;;;;;;;4.41;100.00;95690.88;1048341;28;19909;-64
2021/03/05 01:36:56;;;;;;;;;;;;;;;4.41;100.00;95688.28;1052800;28;19974;-63
2021/03/05 01:37:26;;;;;;;;;;;;;;;4.41;100.00;95690.09;1054852;28;19954;-63
2021/03/05 01:37:56;;;;;;;;;;;;;;;4.41;100.00;95684.88;1052258;28;19908;-63
2021/03/05 01:38:26;;;;;;;;;;;;;;;4.39;100.00;95685.13;1048487;28;20318;-64
2021/03/05 01:38:57;;;;;;;;;;;;;;;4.38;100.00;95686.13;1048036;28;20408;-64
2021/03/05 01:39:27;;;;;;;;;;;;;;;4.38;100.00;95686.13;1047084;28;20593;-63
2021/03/05 01:39:57;;;;;;;;;;;;;;;4.37;100.00;95684.53;1043867;28;20166;-63
2021/03/05 01:40:32;;;;;;;;;;;;;;;4.34;100.00;95682.41;1048099;28;19912;-63
2021/03/05 01:41:02;;;;;;;;;;;;;;;4.32;100.00;95689.59;1040507;28;19909;-64
2021/03/05 01:41:33;;;;;;;;;;;;;;;4.31;100.00;95684.66;1040271;28;19917;-64
2021/03/05 01:42:03;;;;;;;;;;;;;;;4.28;100.00;95678.09;1043867;28;19911;-64
2021/03/05 01:42:34;;;;;;;;;;;;;;;4.26;100.00;95682.75;1044414;28;19955;-63
2021/03/05 01:43:07;;;;;;;;;;;;;;;4.23;100.00;95681.38;1044057;28;20287;-64
2021/03/05 01:43:38;;;;;;;;;;;;;;;4.22;100.00;95682.38;1040866;28;19916;-64
2021/03/05 01:44:08;;;;;;;;;;;;;;;4.22;100.00;95687.56;1048681;28;20492;-64
2021/03/05 01:44:39;;;;;;;;;;;;;;;4.20;100.00;95679.22;1043511;28;19936;-64
2021/03/05 01:45:13;;;;;;;;;;;;;;;4.21;100.00;95680.00;1040262;28;19923;-64
2021/03/05 01:45:44;;;;;;;;;;;;;;;4.22;100.00;95681.56;1039681;28;19909;-64
2021/03/05 01:46:15;;;;;;;;;;;;;;;4.20;100.00;95681.81;1041126;28;20001;-64
2021/03/05 01:46:46;;;;;;;;;;;;;;;4.19;100.00;95676.84;1049184;28;20382;-64
2021/03/05 01:47:16;;;;;;;;;;;;;;;4.19;100.00;95677.66;1051902;28;19912;-64
2021/03/05 01:47:47;;;;;;;;;;;;;;;4.19;100.00;95682.03;1052240;28;19908;-63
2021/03/05 01:48:17;;;;;;;;;;;;;;;4.18;100.00;95681.25;1052630;28;19958;-64
2021/03/05 01:48:47;;;;;;;;;;;;;;;4.18;100.00;95690.84;1052476;28;19955;-64
2021/03/05 01:49:18;;;;;;;;;;;;;;;4.19;100.00;95682.03;1052608;28;20018;-64
2021/03/05 01:49:48;;;;;;;;;;;;;;;4.17;100.00;95684.06;1056502;28;19962;-64
2021/03/05 01:50:20;;;;;;;;;;;;;;;4.18;100.00;95689.03;1048881;28;19916;-64
2021/03/05 01:50:56;;;;;;;;;;;;;;;4.18;100.00;95683.03;1048542;28;19913;-66
2021/03/05 01:51:27;;;;;;;;;;;;;;;4.17;100.00;95678.88;1044727;28;19905;-64
2021/03/05 01:51:57;;;;;;;;;;;;;;;4.17;100.00;95679.66;1049076;28;19905;-65
2021/03/05 01:52:27;;;;;;;;;;;;;;;4.18;100.00;95680.44;1044930;28;19909;-64
2021/03/05 01:52:58;;;;;;;;;;;;;;;4.18;100.00;95676.03;1047941;28;19948;-63
2021/03/05 01:53:29;;;;;;;;;;;;;;;4.19;100.00;95677.66;1052471;28;19908;-64
2021/03/05 01:53:59;;;;;;;;;;;;;;;4.20;100.00;95678.44;1048204;28;19916;-64
2021/03/05 01:54:29;;;;;;;;;;;;;;;4.23;100.00;95670.19;1052405;28;19909;-64
2021/03/05 01:55:00;;;;;;;;;;;;;;;4.25;100.00;95681.91;1048185;28;20630;-64
2021/03/05 01:55:31;;;;;;;;;;;;;;;4.26;100.00;95674.94;1043825;28;19913;-64
2021/03/05 01:56:01;;;;;;;;;;;;;;;4.25;100.00;95681.13;1044342;28;19920;-64
2021/03/05 01:56:33;;;;;;;;;;;;;;;4.26;100.00;95685.34;1046707;28;20362;-63
2021/03/05 01:57:03;;;;;;;;;;;;;;;4.25;100.00;95676.72;1048010;28;19905;-64
2021/03/05 01:57:34;;;;;;;;;;;;;;;4.24;100.00;95674.38;1052618;28;19908;-63
2021/03/05 01:58:04;;;;;;;;;;;;;;;4.24;100.00;95682.94;1056161;28;19911;-64
2021/03/05 01:58:35;;;;;;;;;;;;;;;4.25;100.00;95683.72;1052240;28;19912;-64
2021/03/05 01:59:06;;;;;;;;;;;;;;;4.25;100.00;95676.72;1056622;28;19964;-64
2021/03/05 01:59:36;;;;;;;;;;;;;;;4.25;100.00;95679.31;1056108;28;19922;-64
2021/03/05 02:00:07;;;;;;;;;;;;;;;4.24;100.00;95682.16;1052709;28;19919;-64
2021/03/05 02:00:39;;;;;;;;;;;;;;;4.24;100.00;95685.53;1056243;28;20662;-64
2021/03/05 02:01:09;;;;;;;;;;;;;;;4.23;100.00;95678.00;1048582;28;19901;-64
2021/03/05 02:01:39;;;;;;;;;;;;;;;4.23;100.00;95678.78;1043927;28;19909;-64
2021/03/05 02:02:10;;;;;;;;;;;;;;;4.22;100.00;95681.56;1044162;28;19909;-64
2021/03/05 02:02:40;;;;;;;;;;;;;;;4.24;100.00;95682.16;1039829;28;20366;-64
2021/03/05 02:03:10;;;;;;;;;;;;;;;4.25;100.00;95675.94;1043793;28;19924;-61
2021/03/05 02:03:41;;;;;;;;;;;;;;;4.24;100.00;95680.34;1048225;28;19942;-63
2021/03/05 02:04:11;;;;;;;;;;;;;;;4.26;100.00;95680.13;1048647;28;19919;-62
2021/03/05 02:04:41;;;;;;;;;;;;;;;4.27;100.00;95684.31;1051425;28;19916;-63
2021/03/05 02:05:12;;;;;;;;;;;;;;;4.26;100.00;95685.34;1044060;28;19915;-64
2021/03/05 02:05:42;;;;;;;;;;;;;;;4.29;100.00;95682.25;1048216;28;19909;-63
2021/03/05 02:06:12;;;;;;;;;;;;;;;4.29;100.00;95689.28;1048372;28;19912;-62
2021/03/05 02:06:43;;;;;;;;;;;;;;;4.29;100.00;95676.28;1050391;28;19909;-62
2021/03/05 02:07:13;;;;;;;;;;;;;;;4.31;100.00;95679.47;1051840;28;19909;-61
2021/03/05 02:07:44;;;;;;;;;;;;;;;4.30;100.00;95677.88;1052352;28;19909;-64
2021/03/05 02:08:14;;;;;;;;;;;;;;;4.30;100.00;95685.69;1052031;28;20439;-64
2021/03/05 02:08:44;;;;;;;;;;;;;;;4.30;100.00;95680.47;1043601;28;19901;-63
2021/03/05 02:09:15;;;;;;;;;;;;;;;4.30;100.00;95673.47;1039801;28;19913;-63
2021/03/05 02:09:45;;;;;;;;;;;;;;;4.30;100.00;95681.28;1040141;28;20016;-62
2021/03/05 02:10:15;;;;;;;;;;;;;;;4.30;100.00;95681.28;1039809;28;19913;-64
2021/03/05 02:10:46;;;;;;;;;;;;;;;4.30;100.00;95672.69;1047851;28;19904;-64
2021/03/05 02:11:20;;;;;;;;;;;;;;;4.30;100.00;95673.47;1052574;28;19912;-64
2021/03/05 02:11:50;;;;;;;;;;;;;;;4.29;100.00;95677.06;1047691;28;19905;-62
2021/03/05 02:12:20;;;;;;;;;;;;;;;4.29;100.00;95671.88;1048679;28;20287;-62
2021/03/05 02:12:51;;;;;;;;;;;;;;;4.30;100.00;95673.47;1052228;28;19912;-62
2021/03/05 02:13:21;;;;;;;;;;;;;;;4.28;100.00;95675.50;1053205;28;19916;-62
2021/03/05 02:13:52;;;;;;;;;;;;;;;4.29;100.00;95681.47;1048266;28;19912;-62
2021/03/05 02:14:23;;;;;;;;;;;;;;;4.31;100.00;95671.66;1043921;28;19952;-62
2021/03/05 02:14:53;;;;;;;;;;;;;;;4.31;100.00;95679.47;1039714;28;19909;-64
2021/03/05 02:15:23;;;;;;;;;;;;;;;4.31;100.00;95679.47;1043941;28;20314;-62
2021/03/05 02:15:54;;;;;;;;;;;;;;;4.32;100.00;95678.44;1043843;28;19956;-62
2021/03/05 02:16:24;;;;;;;;;;;;;;;4.30;100.00;95673.47;1044168;28;20031;-63
2021/03/05 02:17:08;;;;;;;;;;;;;;;4.29;100.00;95682.25;1048973;28;20385;-61
2021/03/05 02:17:44;;;;;;;;;;;;;;;4.29;100.00;95673.69;1052012;28;20489;-62
2021/03/05 02:18:15;;;;;;;;;;;;;;;4.28;100.00;95677.31;1055161;28;19937;-64
2021/03/05 02:19:05;;;;;;;;;;;;;;;4.30;100.00;95681.28;1058150;27;19981;-62
2021/03/05 02:19:38;;;;;;;;;;;;;;;4.32;100.00;95681.81;1055840;28;20414;-64
2021/03/05 02:20:16;;;;;;;;;;;;;;;4.33;100.00;95673.03;1052120;28;20381;-64
2021/03/05 02:21:02;;;;;;;;;;;;;;;4.34;100.00;95682.41;1052396;28;19908;-64
2021/03/05 02:21:50;;;;;;;;;;;;;;;4.33;100.00;95680.81;1052077;28;20340;-64
2021/03/05 02:22:39;;;;;;;;;;;;;;;4.32;100.00;95681.81;1053441;27;19904;-63
2021/03/05 02:23:13;;;;;;;;;;;;;;;4.33;100.00;95683.41;1057112;28;20511;-64
2021/03/05 02:23:52;;;;;;;;;;;;;;;4.33;100.00;95686.03;1056281;28;19994;-63
2021/03/05 02:24:41;;;;;;;;;;;;;;;4.32;100.00;95676.63;1056776;28;19915;-64
2021/03/05 02:25:11;;;;;;;;;;;;;;;4.34;100.00;95679.00;1061318;27;20322;-62
2021/03/05 02:26:17;;;;;;;;;;;;;;;4.37;100.00;95681.16;1056751;27;19908;-62
2021/03/05 02:27:06;;;;;;;;;;;;;;;4.35;100.00;95678.78;1039489;28;20381;-64
2021/03/05 02:27:39;;;;;;;;;;;;;;;4.36;100.00;95677.78;1035265;28;19909;-63
2021/03/05 02:28:18;;;;;;;;;;;;;;;4.39;100.00;95682.53;1035456;28;20547;-62
2021/03/05 02:29:04;;;;;;;;;;;;;;;4.38;100.00;95682.75;1035540;28;19917;-62
2021/03/05 02:29:40;;;;;;;;;;;;;;;4.38;100.00;95680.13;1049605;28;19919;-64
2021/03/05 02:30:29;;;;;;;;;;;;;;;4.39;100.00;95682.53;1056779;28;20494;-62
2021/03/05 02:31:12;;;;;;;;;;;;;;;4.38;100.00;95675.72;1061001;27;19910;-63
2021/03/05 02:31:55;;;;;;;;;;;;;;;4.38;100.00;95685.34;1056409;28;20785;-65
2021/03/05 02:32:29;;;;;;;;;;;;;;;4.37;100.00;95689.75;1047507;28;19912;-63
2021/03/05 02:33:07;;;;;;;;;;;;;;;4.38;100.00;95686.13;1044072;28;19905;-62
2021/03/05 02:33:38;;;;;;;;;;;;;;;4.40;100.00;95689.28;1042815;28;19913;-63
2021/03/05 02:34:17;;;;;;;;;;;;;;;4.40;100.00;95686.69;1047160;28;19909;-64
2021/03/05 02:34:48;;;;;;;;;;;;;;;4.40;100.00;95689.28;1047975;28;19909;-63
2021/03/05 02:35:18;;;;;;;;;;;;;;;4.41;100.00;95683.06;1047626;28;19904;-62
2021/03/05 02:35:48;;;;;;;;;;;;;;;4.23;100.00;95652.03;1047399;28;19915;-62
2021/03/05 02:36:26;;;;;;;;;;;;;;;4.43;100.00;95688.06;1048050;28;19901;-64
2021/03/05 02:36:57;;;;;;;;;;;;;;;4.42;100.00;95682.06;1051312;28;19912;-62
2021/03/05 02:37:29;;;;;;;;;;;;;;;4.42;100.00;95686.47;1043516;28;20373;-62
2021/03/05 02:38:00;;;;;;;;;;;;;;;4.42;100.00;95687.25;1043702;28;19936;-62
2021/03/05 02:38:30;;;;;;;;;;;;;;;4.42;100.00;95691.66;1044108;28;19909;-61
2021/03/05 02:39:04;;;;;;;;;;;;;;;4.40;100.00;95683.31;1041661;28;20006;-61
2021/03/05 02:39:53;;;;;;;;;;;;;;;4.40;100.00;95689.28;1048643;28;19905;-65
2021/03/05 02:40:27;;;;;;;;;;;;;;;4.42;100.00;95689.84;1052103;28;19993;-62
2021/03/05 02:40:57;;;;;;;;;;;;;;;4.42;100.00;95687.25;1053754;28;19908;-61
2021/03/05 02:41:28;;;;;;;;;;;;;;;4.43;100.00;95688.84;1055209;28;19908;-62
2021/03/05 02:41:59;;;;;;;;;;;;;;;4.46;100.00;95682.38;1047730;28;19962;-61
2021/03/05 02:42:30;;;;;;;;;;;;;;;4.48;100.00;95681.16;1046068;28;20374;-62
2021/03/05 02:43:03;;;;;;;;;;;;;;;4.49;100.00;95681.94;1048170;28;19913;-62
2021/03/05 02:43:34;;;;;;;;;;;;;;;4.47;100.00;95689.97;1052660;28;20053;-62
2021/03/05 02:44:04;;;;;;;;;;;;;;;4.45;100.00;95681.59;1055106;28;19982;-64
2021/03/05 02:44:38;;;;;;;;;;;;;;;4.45;100.00;95686.81;1055727;28;19908;-62